createdAt,value
2022-12-27T00:01:48.823Z,3.35
2022-12-27T00:04:19.891Z,4.35
2022-12-27T00:06:48.441Z,3.83
2022-12-27T00:09:17.154Z,5.75
2022-12-27T00:11:47.212Z,4.93
2022-12-27T00:14:27.414Z,4.40
2022-12-27T00:16:56.325Z,4.25
2022-12-27T00:19:25.057Z,5.47
2022-12-27T00:21:53.547Z,3.85
2022-12-27T00:24:22.177Z,4.65
2022-12-27T00:26:51.383Z,5.53
2022-12-27T00:29:21.858Z,3.55
2022-12-27T00:31:50.882Z,6.32
2022-12-27T00:34:19.619Z,3.33
2022-12-27T00:36:48.473Z,5.05
2022-12-27T00:39:19.086Z,5.50
2022-12-27T00:41:47.992Z,4.65
2022-12-27T00:44:16.848Z,5.22
2022-12-27T00:46:47.009Z,4.50
2022-12-27T00:49:15.792Z,5.32
2022-12-27T00:51:44.530Z,6.00
2022-12-27T00:54:13.174Z,4.28
2022-12-27T00:56:41.845Z,4.38
2022-12-27T00:59:12.783Z,3.78
2022-12-27T01:01:42.746Z,7.63
2022-12-27T01:04:15.709Z,3.60
2022-12-27T01:06:44.404Z,6.60
2022-12-27T01:09:13.013Z,8.60
2022-12-27T01:11:41.974Z,5.95
2022-12-27T01:14:15.823Z,4.85
2022-12-27T01:16:47.584Z,5.25
2022-12-27T01:19:18.070Z,4.20
2022-12-27T01:21:46.681Z,3.67
2022-12-27T01:24:15.330Z,4.22
2022-12-27T01:26:43.912Z,5.15
2022-12-27T01:29:13.246Z,3.08
2022-12-27T01:31:42.604Z,9.07
2022-12-27T01:34:20.025Z,3.60
2022-12-27T01:37:06.158Z,4.15
2022-12-27T01:39:40.324Z,4.70
2022-12-27T01:42:45.226Z,3.60
2022-12-27T01:45:16.142Z,4.10
2022-12-27T01:47:48.120Z,4.32
2022-12-27T01:50:19.913Z,5.28
2022-12-27T01:52:52.177Z,3.15
2022-12-27T01:55:22.911Z,6.97
2022-12-27T01:57:52.463Z,4.32
2022-12-27T02:00:22.767Z,5.40
2022-12-27T02:02:52.944Z,4.43
2022-12-27T02:05:22.470Z,4.60
2022-12-27T02:08:07.071Z,3.58
2022-12-27T02:10:35.801Z,4.47
2022-12-27T02:13:06.617Z,2.67
2022-12-27T02:15:35.841Z,3.63
2022-12-27T02:18:04.308Z,3.45
2022-12-27T02:20:35.997Z,5.15
2022-12-27T02:23:46.291Z,3.90
2022-12-27T02:26:23.637Z,4.00
2022-12-27T02:29:01.908Z,2.55
2022-12-27T02:31:32.464Z,4.78
2022-12-27T02:34:01.465Z,4.15
2022-12-27T02:36:32.166Z,5.43
2022-12-27T02:39:01.750Z,2.60
2022-12-27T02:41:49.237Z,2.15
2022-12-27T02:44:37.952Z,3.35
2022-12-27T02:47:24.846Z,3.35
2022-12-27T02:50:10.667Z,2.88
2022-12-27T02:53:03.001Z,5.75
2022-12-27T02:55:34.999Z,3.83
2022-12-27T02:58:14.209Z,5.88
2022-12-27T03:01:05.673Z,3.30
2022-12-27T03:03:44.675Z,3.83
2022-12-27T03:06:43.174Z,8.63
2022-12-27T03:09:36.483Z,2.83
2022-12-27T03:12:26.222Z,3.58
2022-12-27T03:15:14.506Z,5.47
2022-12-27T03:17:52.168Z,3.65
2022-12-27T03:20:39.067Z,4.97
2022-12-27T03:23:27.051Z,3.47
2022-12-27T03:25:56.885Z,3.38
2022-12-27T03:28:45.706Z,2.90
2022-12-27T03:31:33.902Z,2.75
2022-12-27T03:34:28.380Z,2.55
2022-12-27T03:37:12.151Z,6.40
2022-12-27T03:39:43.987Z,6.18
2022-12-27T03:42:34.568Z,4.10
2022-12-27T03:45:02.936Z,7.45
2022-12-27T03:47:32.767Z,6.10
2022-12-27T03:50:05.960Z,3.15
2022-12-27T03:52:36.540Z,6.13
2022-12-27T03:55:06.014Z,6.03
2022-12-27T03:57:34.327Z,5.30
2022-12-27T04:00:02.641Z,2.33
2022-12-27T04:02:31.371Z,2.47
2022-12-27T04:04:59.858Z,3.47
2022-12-27T04:07:29.530Z,3.35
2022-12-27T04:10:15.610Z,3.42
2022-12-27T04:13:05.424Z,4.28
2022-12-27T04:15:51.300Z,5.68
2022-12-27T04:18:37.402Z,3.83
2022-12-27T04:21:23.372Z,3.60
2022-12-27T04:24:10.711Z,6.20
2022-12-27T04:26:56.568Z,3.17
2022-12-27T04:29:42.522Z,5.75
2022-12-27T04:32:28.412Z,3.05
2022-12-27T04:34:56.813Z,3.30
2022-12-27T04:37:25.242Z,3.05
2022-12-27T04:40:09.009Z,1.98
2022-12-27T04:42:54.813Z,2.70
2022-12-27T04:45:41.513Z,3.40
2022-12-27T04:48:30.918Z,2.00
2022-12-27T04:51:17.153Z,2.10
2022-12-27T04:54:02.990Z,2.97
2022-12-27T04:56:32.768Z,4.25
2022-12-27T04:59:18.584Z,3.25
2022-12-27T05:02:01.083Z,8.55
2022-12-27T05:04:29.538Z,6.25
2022-12-27T05:06:58.535Z,2.47
2022-12-27T05:09:44.370Z,6.97
2022-12-27T05:12:31.722Z,3.85
2022-12-27T05:15:00.060Z,10.82
2022-12-27T05:17:28.440Z,5.25
2022-12-27T05:19:56.740Z,3.10
2022-12-27T05:22:42.658Z,10.05
2022-12-27T05:25:30.289Z,4.95
2022-12-27T05:28:00.076Z,3.47
2022-12-27T05:30:28.412Z,7.07
2022-12-27T05:32:57.056Z,8.27
2022-12-27T05:35:25.431Z,4.60
2022-12-27T05:37:55.283Z,6.70
2022-12-27T05:40:23.800Z,8.82
2022-12-27T05:42:52.151Z,6.40
2022-12-27T05:45:22.254Z,8.23
2022-12-27T05:47:50.717Z,4.50
2022-12-27T05:50:19.635Z,5.05
2022-12-27T05:52:58.404Z,7.85
2022-12-27T05:55:33.616Z,5.47
2022-12-27T05:58:06.067Z,3.75
2022-12-27T06:00:36.189Z,5.18
2022-12-27T06:03:09.074Z,7.00
2022-12-27T06:05:41.064Z,7.82
2022-12-27T06:08:09.787Z,5.60
2022-12-27T06:10:38.633Z,7.00
2022-12-27T06:13:29.353Z,8.50
2022-12-27T06:16:01.382Z,5.63
2022-12-27T06:18:30.887Z,5.95
2022-12-27T06:21:02.798Z,8.43
2022-12-27T06:23:31.219Z,9.23
2022-12-27T06:25:59.529Z,5.75
2022-12-27T06:28:28.078Z,9.68
2022-12-27T06:30:56.421Z,6.30
2022-12-27T06:33:26.275Z,7.43
2022-12-27T06:35:54.692Z,8.20
2022-12-27T06:38:23.243Z,6.13
2022-12-27T06:40:51.617Z,5.30
2022-12-27T06:43:19.888Z,6.97
2022-12-27T06:45:57.152Z,8.43
2022-12-27T06:48:27.046Z,7.78
2022-12-27T06:50:55.374Z,9.13
2022-12-27T06:53:23.699Z,9.90
2022-12-27T06:55:52.109Z,7.15
2022-12-27T06:58:20.453Z,9.38
2022-12-27T07:00:48.850Z,7.13
2022-12-27T07:03:17.350Z,5.93
2022-12-27T07:05:46.993Z,4.63
2022-12-27T07:08:15.260Z,8.27
2022-12-27T07:10:43.681Z,7.80
2022-12-27T07:13:11.947Z,8.38
2022-12-27T07:15:40.222Z,6.38
2022-12-27T07:18:08.484Z,8.35
2022-12-27T07:20:37.230Z,5.30
2022-12-27T07:23:07.237Z,6.28
2022-12-27T07:25:35.493Z,9.05
2022-12-27T07:28:03.763Z,6.32
2022-12-27T07:30:32.203Z,9.45
2022-12-27T07:33:00.430Z,6.32
2022-12-27T07:35:28.714Z,7.80
2022-12-27T07:37:57.409Z,4.70
2022-12-27T07:40:27.109Z,9.23
2022-12-27T07:42:55.373Z,7.72
2022-12-27T07:45:23.818Z,8.50
2022-12-27T07:47:52.074Z,8.07
2022-12-27T07:50:20.637Z,5.88
2022-12-27T07:52:49.296Z,10.18
2022-12-27T07:55:17.699Z,4.80
2022-12-27T07:57:47.682Z,5.32
2022-12-27T08:00:16.366Z,7.63
2022-12-27T08:02:46.917Z,6.38
2022-12-27T08:05:15.365Z,6.82
2022-12-27T08:07:48.021Z,7.22
2022-12-27T08:10:18.648Z,9.82
2022-12-27T08:13:15.371Z,8.35
2022-12-27T08:20:30.365Z,7.78
2022-12-27T08:34:38.567Z,7.57
2022-12-27T08:37:12.028Z,6.88
2022-12-27T08:39:45.482Z,7.90
2022-12-27T08:42:16.243Z,8.32
2022-12-27T08:46:00.168Z,8.77
2022-12-27T08:49:09.756Z,6.80
2022-12-27T08:52:24.929Z,7.90
2022-12-27T08:56:09.795Z,4.32
2022-12-27T09:04:12.002Z,9.02
2022-12-27T09:07:54.143Z,6.07
2022-12-27T09:12:14.337Z,7.07
2022-12-27T09:18:09.647Z,5.65
2022-12-27T09:21:00.968Z,8.13
2022-12-27T09:23:55.017Z,5.55
2022-12-27T09:30:28.972Z,8.77
2022-12-27T09:33:27.912Z,8.05
2022-12-27T09:36:53.475Z,8.30
2022-12-27T09:39:34.196Z,12.77
2022-12-27T09:42:46.696Z,7.45
2022-12-27T09:45:02.337Z,5.13
2022-12-27T09:47:35.078Z,8.95
2022-12-27T09:50:06.667Z,9.75
2022-12-27T09:52:40.758Z,5.38
2022-12-27T09:55:14.434Z,5.90
2022-12-27T09:57:44.188Z,9.48
2022-12-27T10:00:19.183Z,8.90
2022-12-27T10:03:28.360Z,6.60
2022-12-27T10:06:02.218Z,6.50
2022-12-27T10:08:37.493Z,7.57
2022-12-27T10:14:26.629Z,6.32
2022-12-27T10:17:29.539Z,6.25
2022-12-27T10:26:00.750Z,6.65
2022-12-27T10:28:35.671Z,6.32
2022-12-27T10:31:05.436Z,7.55
2022-12-27T10:33:35.458Z,5.85
2022-12-27T10:36:08.345Z,6.13
2022-12-27T10:38:37.000Z,6.22
2022-12-27T10:41:19.116Z,5.78
2022-12-27T10:43:49.686Z,6.72
2022-12-27T10:46:19.291Z,7.05
2022-12-27T10:49:20.227Z,7.75
2022-12-27T10:51:45.376Z,5.75
2022-12-27T10:54:14.603Z,7.95
2022-12-27T10:56:45.648Z,8.27
2022-12-27T10:59:16.734Z,7.93
2022-12-27T11:01:50.157Z,9.68
2022-12-27T11:04:27.638Z,10.20
2022-12-27T11:07:14.097Z,7.50
2022-12-27T11:09:50.296Z,7.82
2022-12-27T11:12:21.917Z,8.15
2022-12-27T11:14:58.031Z,8.93
2022-12-27T11:17:28.076Z,7.82
2022-12-27T11:19:57.796Z,12.30
2022-12-27T11:22:26.706Z,8.18
2022-12-27T11:24:56.626Z,8.48
2022-12-27T11:27:27.768Z,9.32
2022-12-27T11:29:57.832Z,10.02
2022-12-27T11:32:26.731Z,7.00
2022-12-27T11:34:56.290Z,11.45
2022-12-27T11:37:39.263Z,10.48
2022-12-27T11:41:28.018Z,7.28
2022-12-27T11:44:20.937Z,8.15
2022-12-27T11:47:17.959Z,7.20
2022-12-27T11:49:51.960Z,9.38
2022-12-27T11:52:36.864Z,11.90
2022-12-27T11:55:28.993Z,7.90
2022-12-27T11:58:16.077Z,11.48
2022-12-27T12:00:51.406Z,11.30
2022-12-27T12:03:38.035Z,8.73
2022-12-27T12:06:14.954Z,8.20
2022-12-27T12:09:04.414Z,10.50
2022-12-27T12:11:41.926Z,10.15
2022-12-27T12:14:28.211Z,8.55
2022-12-27T12:17:09.624Z,8.23
2022-12-27T12:20:06.392Z,12.45
2022-12-27T12:22:52.316Z,10.68
2022-12-27T12:25:44.058Z,7.60
2022-12-27T12:28:58.335Z,8.00
2022-12-27T12:31:29.280Z,6.70
2022-12-27T12:34:36.763Z,8.73
2022-12-27T12:37:29.362Z,9.57
2022-12-27T12:43:27.128Z,6.72
2022-12-27T12:54:48.346Z,6.57
2022-12-27T12:57:26.021Z,6.97
2022-12-27T13:00:09.073Z,7.85
2022-12-27T13:02:57.581Z,7.40
2022-12-27T13:05:31.487Z,8.35
2022-12-27T13:08:03.698Z,8.13
2022-12-27T13:10:49.194Z,5.25
2022-12-27T13:13:19.219Z,5.15
2022-12-27T13:15:58.397Z,6.38
2022-12-27T13:18:30.798Z,8.13
2022-12-27T13:21:16.653Z,7.57
2022-12-27T13:27:43.517Z,7.07
2022-12-27T13:30:47.390Z,6.95
2022-12-27T13:33:44.180Z,9.45
2022-12-27T13:44:57.858Z,7.60
2022-12-27T13:51:20.540Z,15.63
2022-12-27T13:54:10.377Z,9.88
2022-12-27T13:56:55.357Z,10.38
2022-12-27T13:59:56.300Z,6.60
2022-12-27T14:06:40.856Z,8.63
2022-12-27T14:27:28.064Z,10.70
2022-12-27T14:39:35.411Z,7.90
2022-12-27T14:42:22.656Z,6.13
2022-12-27T14:45:11.311Z,13.00
2022-12-27T14:48:03.982Z,14.57
2022-12-27T14:50:54.864Z,6.05
2022-12-27T14:53:42.543Z,9.68
2022-12-27T14:56:38.638Z,12.40
2022-12-27T14:59:15.796Z,7.47
2022-12-27T15:01:54.619Z,7.85
2022-12-27T15:04:46.188Z,10.60
2022-12-27T15:07:22.330Z,7.47
2022-12-27T15:10:17.849Z,12.07
2022-12-27T15:12:49.717Z,8.18
2022-12-27T15:15:33.279Z,10.75
2022-12-27T15:18:11.253Z,7.07
2022-12-27T15:21:04.760Z,9.70
2022-12-27T15:23:42.716Z,9.43
2022-12-27T15:26:17.776Z,9.13
2022-12-27T15:28:53.568Z,11.02
2022-12-27T15:31:27.411Z,6.30
2022-12-27T15:34:06.351Z,8.73
2022-12-27T15:36:40.119Z,10.85
2022-12-27T15:39:31.677Z,7.00
2022-12-27T15:42:06.198Z,5.85
2022-12-27T15:44:42.771Z,6.72
2022-12-27T15:47:31.824Z,5.28
2022-12-27T15:50:15.800Z,6.43
2022-12-27T15:52:57.869Z,7.35
2022-12-27T15:55:37.953Z,5.85
2022-12-27T15:58:18.118Z,8.68
2022-12-27T16:00:55.720Z,8.27
2022-12-27T16:03:34.863Z,5.03
2022-12-27T16:06:07.708Z,5.13
2022-12-27T16:08:45.472Z,6.35
2022-12-27T16:11:17.069Z,5.38
2022-12-27T16:13:49.900Z,6.55
2022-12-27T16:16:37.123Z,8.00
2022-12-27T16:19:16.395Z,8.25
2022-12-27T16:21:50.768Z,6.65
2022-12-27T16:24:30.190Z,9.02
2022-12-27T16:27:33.840Z,5.22
2022-12-27T16:30:05.544Z,5.10
2022-12-27T16:32:35.005Z,8.40
2022-12-27T16:39:35.914Z,7.47
2022-12-27T16:42:06.849Z,5.80
2022-12-27T16:44:57.671Z,7.90
2022-12-27T16:47:34.744Z,10.70
2022-12-27T16:50:42.461Z,12.07
2022-12-27T16:53:23.510Z,13.10
2022-12-27T16:56:03.867Z,10.05
2022-12-27T16:59:10.166Z,14.18
2022-12-27T17:02:34.140Z,6.72
2022-12-27T17:05:35.067Z,10.52
2022-12-27T17:08:15.269Z,10.55
2022-12-27T17:11:04.942Z,9.00
2022-12-27T17:13:39.504Z,6.60
2022-12-27T17:16:09.480Z,7.70
2022-12-27T17:18:39.416Z,8.95
2022-12-27T17:21:09.759Z,9.85
2022-12-27T17:23:44.239Z,9.48
2022-12-27T17:26:28.903Z,8.00
2022-12-27T17:29:03.352Z,8.52
2022-12-27T17:31:55.674Z,7.55
2022-12-27T17:34:47.919Z,7.65
2022-12-27T17:40:29.764Z,7.57
2022-12-27T17:43:28.865Z,7.65
2022-12-27T17:46:03.197Z,7.70
2022-12-27T17:48:32.256Z,6.65
2022-12-27T17:51:02.625Z,13.93
2022-12-27T17:53:48.572Z,7.63
2022-12-27T17:59:40.093Z,6.07
2022-12-27T18:02:16.278Z,11.82
2022-12-27T18:04:52.002Z,8.90
2022-12-27T18:07:28.532Z,11.55
2022-12-27T18:10:00.477Z,5.57
2022-12-27T18:12:32.353Z,8.18
2022-12-27T18:15:03.263Z,9.32
2022-12-27T18:17:37.295Z,7.50
2022-12-27T18:20:24.313Z,7.45
2022-12-27T18:22:52.752Z,5.43
2022-12-27T18:25:25.429Z,7.25
2022-12-27T18:28:01.216Z,6.53
2022-12-27T18:30:30.618Z,9.88
2022-12-27T18:32:59.672Z,9.52
2022-12-27T18:35:28.309Z,10.82
2022-12-27T18:37:57.054Z,9.93
2022-12-27T18:40:26.131Z,9.88
2022-12-27T18:42:56.032Z,8.90
2022-12-27T18:45:26.705Z,8.20
2022-12-27T18:47:56.071Z,10.27
2022-12-27T18:50:25.441Z,8.35
2022-12-27T18:53:02.190Z,9.05
2022-12-27T18:55:32.048Z,9.88
2022-12-27T18:58:03.955Z,9.68
2022-12-27T19:00:35.986Z,8.13
2022-12-27T19:03:18.113Z,9.48
2022-12-27T19:05:58.555Z,8.55
2022-12-27T19:08:34.690Z,11.18
2022-12-27T19:11:03.082Z,10.40
2022-12-27T19:13:32.928Z,10.05
2022-12-27T19:16:02.969Z,8.02
2022-12-27T19:18:33.097Z,9.00
2022-12-27T19:21:02.566Z,11.43
2022-12-27T19:23:59.887Z,7.13
2022-12-27T19:26:31.956Z,9.95
2022-12-27T19:29:02.043Z,10.23
2022-12-27T19:32:21.040Z,11.43
2022-12-27T19:38:51.959Z,8.55
2022-12-27T19:45:18.080Z,9.25
2022-12-27T19:47:52.920Z,7.75
2022-12-27T19:51:15.827Z,9.93
2022-12-27T19:56:47.728Z,11.82
2022-12-27T19:59:18.693Z,7.50
2022-12-27T20:01:47.797Z,8.68
2022-12-27T20:04:17.457Z,9.52
2022-12-27T20:06:49.739Z,10.80
2022-12-27T20:09:22.821Z,10.38
2022-12-27T20:11:54.644Z,13.88
2022-12-27T20:14:28.676Z,8.95
2022-12-27T20:17:01.796Z,14.30
2022-12-27T20:19:33.505Z,9.32
2022-12-27T20:22:08.219Z,13.93
2022-12-27T20:24:40.640Z,10.77
2022-12-27T20:27:14.370Z,14.43
2022-12-27T20:29:52.382Z,14.07
2022-12-27T20:32:23.955Z,9.27
2022-12-27T20:39:10.606Z,10.77
2022-12-27T20:41:43.706Z,12.18
2022-12-27T20:47:32.266Z,12.55
2022-12-27T20:50:05.837Z,14.48
2022-12-27T20:52:40.532Z,11.38
2022-12-27T20:55:11.006Z,8.63
2022-12-27T20:57:47.781Z,12.40
2022-12-27T21:00:47.054Z,13.57
2022-12-27T21:11:06.873Z,12.82
2022-12-27T21:13:39.242Z,9.52
2022-12-27T21:28:39.813Z,13.27
2022-12-27T21:31:09.081Z,14.88
2022-12-27T21:33:52.355Z,8.40
2022-12-27T21:36:21.966Z,15.98
2022-12-27T21:38:50.890Z,11.77
2022-12-27T21:41:20.651Z,12.10
2022-12-27T21:48:18.607Z,11.27
2022-12-27T21:50:47.007Z,15.13
2022-12-27T21:53:27.826Z,11.23
2022-12-27T21:55:58.746Z,12.90
2022-12-27T21:58:27.727Z,11.18
2022-12-27T22:01:01.472Z,15.77
2022-12-27T22:03:35.841Z,13.85
2022-12-27T22:06:10.886Z,11.07
2022-12-27T22:08:39.325Z,13.43
2022-12-27T22:11:07.947Z,11.10
2022-12-27T22:13:37.226Z,13.80
2022-12-27T22:16:07.258Z,12.65
2022-12-27T22:18:37.547Z,11.07
2022-12-27T22:21:07.769Z,11.88
2022-12-27T22:23:37.117Z,10.18
2022-12-27T22:26:05.755Z,12.93
2022-12-27T22:28:34.040Z,8.52
2022-12-27T22:31:06.224Z,12.05
2022-12-27T22:33:34.677Z,9.40
2022-12-27T22:36:07.992Z,15.93
2022-12-27T22:38:37.068Z,10.90
2022-12-27T22:41:06.081Z,10.68
2022-12-27T22:43:34.435Z,11.68
2022-12-27T22:46:06.340Z,10.32
2022-12-27T22:48:34.766Z,10.05
2022-12-27T22:51:09.055Z,10.77
2022-12-27T22:53:37.872Z,11.90
2022-12-27T22:56:06.212Z,11.02
2022-12-27T22:58:34.543Z,9.68
2022-12-27T23:01:02.862Z,10.65
2022-12-27T23:03:31.233Z,9.18
2022-12-27T23:06:00.197Z,11.98
2022-12-27T23:08:29.836Z,8.50
2022-12-27T23:11:02.952Z,8.10
2022-12-27T23:13:31.254Z,10.45
2022-12-27T23:16:00.093Z,15.10
2022-12-27T23:18:28.968Z,9.50
2022-12-27T23:21:21.456Z,12.18
2022-12-27T23:23:46.933Z,7.55
2022-12-27T23:26:16.694Z,8.68
2022-12-27T23:28:45.959Z,9.35
2022-12-27T23:31:14.941Z,12.80
2022-12-27T23:33:43.869Z,13.07
2022-12-27T23:36:12.751Z,9.45
2022-12-27T23:38:41.561Z,7.72
2022-12-27T23:41:14.644Z,8.38
2022-12-27T23:43:58.482Z,6.75
2022-12-27T23:46:27.950Z,10.05
2022-12-27T23:48:56.894Z,8.43
2022-12-27T23:51:25.359Z,10.20
2022-12-27T23:53:53.756Z,10.73
2022-12-27T23:56:24.629Z,8.85
2022-12-27T23:58:54.102Z,10.93
